createdAt,value
2018-12-05T00:00:36.271Z,66.33
2018-12-05T00:03:09.988Z,73.33
2018-12-05T00:05:41.445Z,67.47
2018-12-05T00:08:10.199Z,70.27
2018-12-05T00:10:38.769Z,67.60
2018-12-05T00:13:08.210Z,72.97
2018-12-05T00:15:36.939Z,61.37
2018-12-05T00:18:37.238Z,58.77
2018-12-05T00:21:05.941Z,60.03
2018-12-05T00:23:34.859Z,52.73
2018-12-05T00:26:03.592Z,47.47
2018-12-05T00:28:32.294Z,50.07
2018-12-05T00:31:01.376Z,48.87
2018-12-05T00:33:29.958Z,40.47
2018-12-05T00:35:58.440Z,40.20
2018-12-05T00:38:26.981Z,36.23
2018-12-05T00:40:55.571Z,41.97
2018-12-05T00:43:24.116Z,40.33
2018-12-05T00:45:52.673Z,40.30
2018-12-05T00:48:21.300Z,36.37
2018-12-05T00:50:50.051Z,44.57
2018-12-05T00:53:18.737Z,38.17
2018-12-05T00:55:47.346Z,42.40
2018-12-05T00:58:15.998Z,38.53
2018-12-05T01:00:44.861Z,41.47
2018-12-05T01:03:13.534Z,49.90
2018-12-05T01:05:42.131Z,46.37
2018-12-05T01:08:11.184Z,41.40
2018-12-05T01:10:40.718Z,48.97
2018-12-05T01:13:09.551Z,42.13
2018-12-05T01:15:38.625Z,39.90
2018-12-05T01:18:07.330Z,44.63
2018-12-05T01:20:35.914Z,36.50
2018-12-05T01:23:04.755Z,37.80
2018-12-05T01:25:33.770Z,37.97
2018-12-05T01:28:02.294Z,38.30
2018-12-05T01:30:31.198Z,27.47
2018-12-05T01:32:59.812Z,33.67
2018-12-05T01:35:28.437Z,34.13
2018-12-05T01:37:57.126Z,35.83
2018-12-05T01:40:25.965Z,32.53
2018-12-05T01:42:54.685Z,36.57
2018-12-05T01:45:23.267Z,36.00
2018-12-05T01:47:52.216Z,37.63
2018-12-05T01:50:20.783Z,36.60
2018-12-05T01:52:49.452Z,32.70
2018-12-05T01:55:18.278Z,40.37
2018-12-05T01:57:47.073Z,38.43
2018-12-05T02:00:15.675Z,37.53
2018-12-05T02:02:44.542Z,31.53
2018-12-05T02:05:13.466Z,34.77
2018-12-05T02:07:42.101Z,37.00
2018-12-05T02:10:11.258Z,34.07
2018-12-05T02:12:39.931Z,32.40
2018-12-05T02:15:08.687Z,31.30
2018-12-05T02:17:37.358Z,27.70
2018-12-05T02:20:06.373Z,28.60
2018-12-05T02:22:35.767Z,31.63
2018-12-05T02:25:04.583Z,32.53
2018-12-05T02:27:33.134Z,31.20
2018-12-05T02:30:01.642Z,32.67
2018-12-05T02:32:30.559Z,29.60
2018-12-05T02:34:59.172Z,30.63
2018-12-05T02:37:28.026Z,24.90
2018-12-05T02:39:57.030Z,29.77
2018-12-05T02:42:26.270Z,33.80
2018-12-05T02:44:54.925Z,29.20
2018-12-05T02:47:23.830Z,32.10
2018-12-05T02:49:52.466Z,36.43
2018-12-05T02:52:21.157Z,32.93
2018-12-05T02:54:49.842Z,34.83
2018-12-05T02:57:18.672Z,26.83
2018-12-05T02:59:47.175Z,34.97
2018-12-05T03:02:16.116Z,32.43
2018-12-05T03:04:44.625Z,37.13
2018-12-05T03:07:13.088Z,34.20
2018-12-05T03:09:42.339Z,36.50
2018-12-05T03:12:10.887Z,36.63
2018-12-05T03:14:39.428Z,30.27
2018-12-05T03:17:08.551Z,37.10
2018-12-05T03:19:37.247Z,28.57
2018-12-05T03:22:05.980Z,32.13
2018-12-05T03:24:34.767Z,28.20
2018-12-05T03:27:03.368Z,33.53
2018-12-05T03:29:31.963Z,29.23
2018-12-05T03:32:00.969Z,30.13
2018-12-05T03:34:29.549Z,27.00
2018-12-05T03:36:58.159Z,32.33
2018-12-05T03:39:26.663Z,36.00
2018-12-05T03:41:55.261Z,33.07
2018-12-05T03:44:23.927Z,37.30
2018-12-05T03:46:52.553Z,35.60
2018-12-05T03:49:21.141Z,32.77
2018-12-05T03:51:49.907Z,36.57
2018-12-05T03:54:18.726Z,32.70
2018-12-05T03:56:47.290Z,36.60
2018-12-05T03:59:15.930Z,33.43
2018-12-05T04:01:44.611Z,35.33
2018-12-05T04:04:13.142Z,40.17
2018-12-05T04:06:41.867Z,39.87
2018-12-05T04:09:10.469Z,46.93
2018-12-05T04:11:39.539Z,43.77
2018-12-05T04:14:08.107Z,46.27
2018-12-05T04:16:37.391Z,35.03
2018-12-05T04:19:06.003Z,41.40
2018-12-05T04:21:34.635Z,49.13
2018-12-05T04:24:03.174Z,46.60
2018-12-05T04:26:32.260Z,42.67
2018-12-05T04:29:00.965Z,52.10
2018-12-05T04:31:29.562Z,39.63
2018-12-05T04:33:58.162Z,42.83
2018-12-05T04:36:26.754Z,40.70
2018-12-05T04:38:55.378Z,42.03
2018-12-05T04:41:24.384Z,38.23
2018-12-05T04:43:53.150Z,39.23
2018-12-05T04:46:21.621Z,44.83
2018-12-05T04:48:50.435Z,48.40
2018-12-05T04:51:18.963Z,42.87
2018-12-05T04:53:47.637Z,37.03
2018-12-05T04:56:16.221Z,39.77
2018-12-05T04:58:45.105Z,43.57
2018-12-05T05:01:16.594Z,43.37
2018-12-05T05:03:45.470Z,46.07
2018-12-05T05:06:14.005Z,36.13
2018-12-05T05:08:42.496Z,52.63
2018-12-05T05:11:11.116Z,48.77
2018-12-05T05:13:39.625Z,46.40
2018-12-05T05:16:08.361Z,48.30
2018-12-05T05:18:37.464Z,45.70
2018-12-05T05:21:06.362Z,50.67
2018-12-05T05:23:34.870Z,46.87
2018-12-05T05:26:03.569Z,53.60
2018-12-05T05:28:32.284Z,57.83
2018-12-05T05:31:00.969Z,54.60
2018-12-05T05:33:29.642Z,57.67
2018-12-05T05:35:58.375Z,52.23
2018-12-05T05:38:27.083Z,56.60
2018-12-05T05:40:55.750Z,51.50
2018-12-05T05:43:24.505Z,54.57
2018-12-05T05:45:53.246Z,48.17
2018-12-05T05:48:21.867Z,47.80
2018-12-05T05:50:51.968Z,53.00
2018-12-05T05:53:20.845Z,51.23
2018-12-05T05:55:52.232Z,55.17
2018-12-05T05:58:20.736Z,65.40
2018-12-05T06:00:49.421Z,61.80
2018-12-05T06:03:18.330Z,56.20
2018-12-05T06:05:46.901Z,59.23
2018-12-05T06:08:15.902Z,62.90
2018-12-05T06:10:44.577Z,62.90
2018-12-05T06:13:13.262Z,68.60
2018-12-05T06:15:42.426Z,63.47
2018-12-05T06:18:11.450Z,77.00
2018-12-05T06:20:40.303Z,54.27
2018-12-05T06:23:09.026Z,67.67
2018-12-05T06:25:37.514Z,57.40
2018-12-05T06:28:06.053Z,61.93
2018-12-05T06:30:35.006Z,69.70
2018-12-05T06:33:03.576Z,66.00
2018-12-05T06:35:32.114Z,69.40
2018-12-05T06:38:00.977Z,72.37
2018-12-05T06:40:29.946Z,65.33
2018-12-05T06:42:59.026Z,65.93
2018-12-05T06:45:27.947Z,59.60
2018-12-05T06:47:56.808Z,62.83
2018-12-05T06:50:25.712Z,53.20
2018-12-05T06:52:55.026Z,56.17
2018-12-05T06:55:24.529Z,53.60
2018-12-05T06:57:53.259Z,68.73
2018-12-05T07:00:24.946Z,62.83
2018-12-05T07:02:57.082Z,56.20
2018-12-05T07:05:26.092Z,54.70
2018-12-05T07:08:15.589Z,52.90
2018-12-05T07:10:44.467Z,50.00
2018-12-05T07:13:14.633Z,47.67
2018-12-05T07:15:43.550Z,47.37
2018-12-05T07:18:13.263Z,52.50
2018-12-05T07:20:42.063Z,47.60
2018-12-05T07:23:12.052Z,58.60
2018-12-05T07:25:42.195Z,74.30
2018-12-05T07:28:11.260Z,66.13
2018-12-05T07:30:39.925Z,68.53
2018-12-05T07:33:08.667Z,48.73
2018-12-05T07:35:41.229Z,55.77
2018-12-05T07:38:10.249Z,54.57
2018-12-05T07:40:39.194Z,51.40
2018-12-05T07:43:11.102Z,47.67
2018-12-05T07:45:41.693Z,68.83
2018-12-05T07:48:12.783Z,49.63
2018-12-05T07:54:37.563Z,50.53
2018-12-05T08:02:41.587Z,49.03
2018-12-05T08:05:11.037Z,49.70
2018-12-05T08:14:11.379Z,39.50
2018-12-05T08:16:40.657Z,45.73
2018-12-05T08:19:09.721Z,51.27
2018-12-05T08:21:39.537Z,36.23
2018-12-05T08:24:08.692Z,45.07
2018-12-05T08:26:38.338Z,40.77
2018-12-05T08:29:07.103Z,35.73
2018-12-05T08:31:38.051Z,44.33
2018-12-05T08:34:07.245Z,42.77
2018-12-05T08:36:37.066Z,44.97
2018-12-05T08:39:14.563Z,43.40
2018-12-05T08:45:09.954Z,40.33
2018-12-05T08:47:42.112Z,44.17
2018-12-05T08:50:13.017Z,38.23
2018-12-05T08:52:42.516Z,50.70
2018-12-05T08:55:11.480Z,41.97
2018-12-05T08:57:40.671Z,53.90
2018-12-05T09:00:10.081Z,48.87
2018-12-05T09:02:39.024Z,54.03
2018-12-05T09:05:17.222Z,50.27
2018-12-05T09:07:47.063Z,52.80
2018-12-05T09:10:16.513Z,45.90
2018-12-05T09:12:46.818Z,43.43
2018-12-05T09:15:17.402Z,45.57
2018-12-05T09:17:46.333Z,50.57
2018-12-05T09:20:16.509Z,46.40
2018-12-05T09:22:45.381Z,50.53
2018-12-05T09:25:16.244Z,50.93
2018-12-05T09:27:45.456Z,56.47
2018-12-05T09:30:15.061Z,48.20
2018-12-05T09:32:50.830Z,54.33
2018-12-05T09:35:39.366Z,45.93
2018-12-05T09:38:23.642Z,52.80
2018-12-05T09:43:42.601Z,58.33
2018-12-05T09:46:17.636Z,47.40
2018-12-05T09:48:48.688Z,47.20
2018-12-05T09:51:17.851Z,47.67
2018-12-05T09:53:48.791Z,50.67
2018-12-05T09:56:20.471Z,46.70
2018-12-05T09:58:50.073Z,55.83
2018-12-05T10:01:33.593Z,52.63
2018-12-05T10:04:03.784Z,46.53
2018-12-05T10:06:34.888Z,62.47
2018-12-05T10:09:15.486Z,51.33
2018-12-05T10:11:45.277Z,58.97
2018-12-05T10:14:14.316Z,67.47
2018-12-05T10:16:49.617Z,50.07
2018-12-05T10:19:19.184Z,69.27
2018-12-05T10:21:49.145Z,75.20
2018-12-05T10:24:18.219Z,72.97
2018-12-05T10:26:47.542Z,68.53
2018-12-05T10:29:16.790Z,54.37
2018-12-05T10:31:45.789Z,49.10
2018-12-05T10:34:28.211Z,44.03
2018-12-05T10:40:02.791Z,61.83
2018-12-05T10:42:34.740Z,56.83
2018-12-05T10:45:04.827Z,37.13
2018-12-05T10:47:33.975Z,44.60
2018-12-05T10:50:05.615Z,40.37
2018-12-05T10:52:36.091Z,51.30
2018-12-05T10:55:06.000Z,46.47
2018-12-05T10:57:37.395Z,44.07
2018-12-05T11:00:09.547Z,50.70
2018-12-05T11:03:43.612Z,50.07
2018-12-05T11:06:18.466Z,49.13
2018-12-05T11:08:52.860Z,58.33
2018-12-05T11:11:28.207Z,56.40
2018-12-05T11:14:04.716Z,54.93
2018-12-05T11:16:41.735Z,53.03
2018-12-05T11:19:15.727Z,54.73
2018-12-05T11:22:50.434Z,55.60
2018-12-05T11:25:21.636Z,46.80
2018-12-05T11:27:51.831Z,46.70
2018-12-05T11:30:20.659Z,48.37
2018-12-05T11:32:49.544Z,66.63
2018-12-05T11:35:18.360Z,69.07
2018-12-05T11:38:22.523Z,46.43
2018-12-05T11:40:53.123Z,47.57
2018-12-05T11:46:24.203Z,47.53
2018-12-05T11:48:55.220Z,39.23
2018-12-05T11:51:26.555Z,44.23
2018-12-05T11:53:55.707Z,44.63
2018-12-05T11:56:24.574Z,49.23
2018-12-05T11:58:53.319Z,46.87
2018-12-05T12:01:22.611Z,43.93
2018-12-05T12:03:51.533Z,44.87
2018-12-05T12:06:20.534Z,48.10
2018-12-05T12:08:49.227Z,47.37
2018-12-05T12:11:17.875Z,50.40
2018-12-05T12:13:46.649Z,57.03
2018-12-05T12:16:15.806Z,45.30
2018-12-05T12:18:44.482Z,47.00
2018-12-05T12:21:13.223Z,43.83
2018-12-05T12:23:42.098Z,51.07
2018-12-05T12:26:11.140Z,46.13
2018-12-05T12:28:43.155Z,55.83
2018-12-05T12:31:12.018Z,45.77
2018-12-05T12:33:41.820Z,48.23
2018-12-05T12:36:10.639Z,40.63
2018-12-05T12:38:40.593Z,45.77
2018-12-05T12:41:11.255Z,60.33
2018-12-05T12:43:52.142Z,51.37
2018-12-05T12:46:32.169Z,53.10
2018-12-05T12:49:01.490Z,59.17
2018-12-05T12:51:31.125Z,51.93
2018-12-05T12:54:02.300Z,48.07
2018-12-05T12:56:33.838Z,52.47
2018-12-05T12:59:03.040Z,58.67
2018-12-05T13:01:33.177Z,49.67
2018-12-05T13:04:02.720Z,37.53
2018-12-05T13:06:31.609Z,51.63
2018-12-05T13:09:00.313Z,51.40
2018-12-05T13:11:29.554Z,48.67
2018-12-05T13:13:58.406Z,46.73
2018-12-05T13:16:27.438Z,51.90
2018-12-05T13:18:56.282Z,50.57
2018-12-05T13:21:25.737Z,41.43
2018-12-05T13:23:56.419Z,42.63
2018-12-05T13:26:27.038Z,45.37
2018-12-05T13:28:55.768Z,44.60
2018-12-05T13:31:25.603Z,41.00
2018-12-05T13:33:54.528Z,49.10
2018-12-05T13:39:01.638Z,56.70
2018-12-05T13:41:30.426Z,69.67
2018-12-05T13:44:01.019Z,66.83
2018-12-05T13:46:30.251Z,57.03
2018-12-05T13:48:59.477Z,52.87
2018-12-05T13:51:28.122Z,53.57
2018-12-05T13:53:56.983Z,61.10
2018-12-05T13:56:26.120Z,64.70
2018-12-05T13:58:54.903Z,60.67
2018-12-05T14:01:24.265Z,63.40
2018-12-05T14:03:53.530Z,57.27
2018-12-05T14:06:27.319Z,63.53
2018-12-05T14:08:56.425Z,70.47
2018-12-05T14:11:25.790Z,68.93
2018-12-05T14:13:54.786Z,80.67
2018-12-05T14:16:23.720Z,92.33
2018-12-05T14:18:52.611Z,87.13
2018-12-05T14:21:22.065Z,98.17
2018-12-05T14:23:52.205Z,102.33
2018-12-05T14:26:21.727Z,72.83
2018-12-05T14:28:50.594Z,73.27
2018-12-05T14:31:19.640Z,77.50
2018-12-05T14:33:48.539Z,81.83
2018-12-05T14:36:17.326Z,93.57
2018-12-05T14:38:47.450Z,97.17
2018-12-05T14:41:16.399Z,90.37
2018-12-05T14:43:45.650Z,85.07
2018-12-05T14:46:15.623Z,96.50
2018-12-05T14:48:45.381Z,105.00
2018-12-05T14:51:14.214Z,102.73
2018-12-05T14:53:45.236Z,95.50
2018-12-05T14:56:14.143Z,110.67
2018-12-05T14:58:43.148Z,120.43
2018-12-05T15:01:20.983Z,122.37
2018-12-05T15:03:50.086Z,131.97
2018-12-05T15:06:18.834Z,139.70
2018-12-05T15:08:47.473Z,127.17
2018-12-05T15:11:16.416Z,132.53
2018-12-05T15:13:45.650Z,114.97
2018-12-05T15:16:14.449Z,136.53
2018-12-05T15:18:43.479Z,151.47
2018-12-05T15:21:12.330Z,149.30
2018-12-05T15:23:47.691Z,157.03
2018-12-05T15:26:16.511Z,186.97
2018-12-05T15:28:45.342Z,150.97
2018-12-05T15:31:14.516Z,169.57
2018-12-05T15:33:43.195Z,188.57
2018-12-05T15:36:12.228Z,168.43
2018-12-05T15:38:40.947Z,187.43
2018-12-05T15:41:09.613Z,191.60
2018-12-05T15:43:38.659Z,159.77
2018-12-05T15:46:07.649Z,169.23
2018-12-05T15:48:36.485Z,166.03
2018-12-05T15:51:06.093Z,133.10
2018-12-05T15:53:34.759Z,131.00
2018-12-05T15:56:03.893Z,106.87
2018-12-05T15:58:32.921Z,96.67
2018-12-05T16:01:01.954Z,94.50
2018-12-05T16:03:30.892Z,94.97
2018-12-05T16:05:59.510Z,74.27
2018-12-05T16:08:28.371Z,89.90
2018-12-05T16:11:01.442Z,100.00
2018-12-05T16:13:30.547Z,113.17
2018-12-05T16:15:59.789Z,142.00
2018-12-05T16:18:28.665Z,140.27
2018-12-05T16:20:57.311Z,139.77
2018-12-05T16:26:16.588Z,116.47
2018-12-05T16:28:46.219Z,119.97
2018-12-05T16:31:15.089Z,145.03
2018-12-05T16:33:44.295Z,155.10
2018-12-05T16:36:12.976Z,158.00
2018-12-05T16:38:41.639Z,162.97
2018-12-05T16:41:10.495Z,169.67
2018-12-05T16:43:39.379Z,186.83
2018-12-05T16:46:08.082Z,182.30
2018-12-05T16:48:37.161Z,178.07
2018-12-05T16:51:06.506Z,173.17
2018-12-05T16:53:35.228Z,177.67
2018-12-05T16:56:03.829Z,162.43
2018-12-05T16:58:32.914Z,157.93
2018-12-05T17:03:40.774Z,173.27
2018-12-05T17:06:09.710Z,169.27
2018-12-05T17:08:38.454Z,185.33
2018-12-05T17:11:07.365Z,191.53
2018-12-05T17:13:40.225Z,201.90
2018-12-05T17:16:18.203Z,207.73
2018-12-05T17:18:46.727Z,222.10
2018-12-05T17:21:15.334Z,202.90
2018-12-05T17:23:44.195Z,216.20
2018-12-05T17:26:13.070Z,224.87
2018-12-05T17:28:41.901Z,278.70
2018-12-05T17:31:10.629Z,350.03
2018-12-05T17:33:39.455Z,379.30
2018-12-05T17:36:07.959Z,334.00
2018-12-05T17:38:37.005Z,373.63
2018-12-05T17:41:05.610Z,327.70
2018-12-05T17:43:34.926Z,272.00
2018-12-05T17:46:04.035Z,266.13
2018-12-05T17:48:32.695Z,275.30
2018-12-05T17:51:01.588Z,258.83
2018-12-05T17:53:30.280Z,230.13
2018-12-05T17:55:58.963Z,220.20
2018-12-05T17:58:27.917Z,156.67
2018-12-05T18:00:56.477Z,132.93
2018-12-05T18:03:25.186Z,163.00
2018-12-05T18:05:53.804Z,150.37
2018-12-05T18:08:23.422Z,171.50
2018-12-05T18:10:52.059Z,169.97
2018-12-05T18:13:20.798Z,151.87
2018-12-05T18:15:49.702Z,123.73
2018-12-05T18:18:18.836Z,132.87
2018-12-05T18:20:47.718Z,121.53
2018-12-05T18:23:16.868Z,123.57
2018-12-05T18:25:45.563Z,133.90
2018-12-05T18:28:14.302Z,131.50
2018-12-05T18:30:43.295Z,135.03
2018-12-05T18:33:12.170Z,133.80
2018-12-05T18:35:41.482Z,147.97
2018-12-05T18:38:10.820Z,143.23
2018-12-05T18:40:40.262Z,135.57
2018-12-05T18:43:08.929Z,145.00
2018-12-05T18:45:37.542Z,139.40
2018-12-05T18:48:06.410Z,168.63
2018-12-05T18:50:35.281Z,176.13
2018-12-05T18:53:04.167Z,246.77
2018-12-05T18:55:33.074Z,233.60
2018-12-05T18:58:01.659Z,219.00
2018-12-05T19:00:30.441Z,290.40
2018-12-05T19:03:00.185Z,246.00
2018-12-05T19:05:28.938Z,276.57
2018-12-05T19:07:57.502Z,248.20
2018-12-05T19:10:27.793Z,264.57
2018-12-05T19:12:58.995Z,229.77
2018-12-05T19:15:28.126Z,215.93
2018-12-05T19:17:56.933Z,242.37
2018-12-05T19:20:25.574Z,224.50
2018-12-05T19:22:54.347Z,241.43
2018-12-05T19:25:33.051Z,237.57
2018-12-05T19:28:01.790Z,230.80
2018-12-05T19:30:30.639Z,261.07
2018-12-05T19:32:59.242Z,302.37
2018-12-05T19:35:50.414Z,270.20
2018-12-05T19:38:19.157Z,293.73
2018-12-05T19:40:56.151Z,248.30
2018-12-05T19:43:25.278Z,224.67
2018-12-05T19:45:53.930Z,221.87
2018-12-05T19:48:23.408Z,232.60
2018-12-05T19:50:52.269Z,226.17
2018-12-05T19:53:26.035Z,220.57
2018-12-05T19:55:54.866Z,210.20
2018-12-05T19:58:23.912Z,194.57
2018-12-05T20:00:52.581Z,202.07
2018-12-05T20:03:21.498Z,187.03
2018-12-05T20:05:50.432Z,150.37
2018-12-05T20:08:19.624Z,113.33
2018-12-05T20:10:48.477Z,120.57
2018-12-05T20:13:17.158Z,131.87
2018-12-05T20:15:46.258Z,149.40
2018-12-05T20:18:15.063Z,131.60
2018-12-05T20:20:44.009Z,133.60
2018-12-05T20:23:13.043Z,154.37
2018-12-05T20:25:41.808Z,145.17
2018-12-05T20:28:11.565Z,157.90
2018-12-05T20:30:40.681Z,173.70
2018-12-05T20:33:09.780Z,184.07
2018-12-05T20:35:38.278Z,205.07
2018-12-05T20:38:07.024Z,212.07
2018-12-05T20:40:36.170Z,203.50
2018-12-05T20:43:05.349Z,214.00
2018-12-05T20:45:34.492Z,225.57
2018-12-05T20:48:03.587Z,243.13
2018-12-05T20:50:32.567Z,244.03
2018-12-05T20:53:01.254Z,278.10
2018-12-05T20:55:30.566Z,260.87
2018-12-05T20:57:59.426Z,264.20
2018-12-05T21:00:28.616Z,272.90
2018-12-05T21:02:57.788Z,274.73
2018-12-05T21:05:26.952Z,285.00
2018-12-05T21:07:56.057Z,261.87
2018-12-05T21:10:25.281Z,269.37
2018-12-05T21:12:53.903Z,252.83
2018-12-05T21:15:23.961Z,223.30
2018-12-05T21:17:52.609Z,254.73
2018-12-05T21:20:21.250Z,247.70
2018-12-05T21:22:50.370Z,219.63
2018-12-05T21:25:19.027Z,248.50
2018-12-05T21:27:48.066Z,218.20
2018-12-05T21:30:17.064Z,204.40
2018-12-05T21:32:45.898Z,220.33
2018-12-05T21:35:15.229Z,199.63
2018-12-05T21:37:44.320Z,195.40
2018-12-05T21:40:13.736Z,208.77
2018-12-05T21:42:42.418Z,200.97
2018-12-05T21:45:11.651Z,215.40
2018-12-05T21:47:40.741Z,197.07
2018-12-05T21:50:09.674Z,203.90
2018-12-05T21:52:38.394Z,198.10
2018-12-05T21:55:07.588Z,203.70
2018-12-05T21:57:36.981Z,180.70
2018-12-05T22:00:08.958Z,203.27
2018-12-05T22:02:38.463Z,199.67
2018-12-05T22:05:07.562Z,198.10
2018-12-05T22:07:36.375Z,200.73
2018-12-05T22:10:07.424Z,192.67
2018-12-05T22:12:36.299Z,195.57
2018-12-05T22:15:06.164Z,222.83
2018-12-05T22:17:34.969Z,204.67
2018-12-05T22:20:04.488Z,213.93
2018-12-05T22:22:33.439Z,204.53
2018-12-05T22:25:07.571Z,211.47
2018-12-05T22:27:36.412Z,209.50
2018-12-05T22:30:06.218Z,207.63
2018-12-05T22:32:35.771Z,231.10
2018-12-05T22:35:05.326Z,225.73
2018-12-05T22:37:34.111Z,214.13
2018-12-05T22:40:02.910Z,215.83
2018-12-05T22:42:31.802Z,209.33
2018-12-05T22:45:00.619Z,206.10
2018-12-05T22:47:29.468Z,211.33
2018-12-05T22:49:58.056Z,200.40
2018-12-05T22:52:27.615Z,226.20
2018-12-05T22:54:56.418Z,221.00
2018-12-05T22:57:27.487Z,219.90
2018-12-05T23:00:02.962Z,230.77
2018-12-05T23:02:31.904Z,240.50
2018-12-05T23:05:00.768Z,245.37
2018-12-05T23:07:29.600Z,250.73
2018-12-05T23:09:59.327Z,236.80
2018-12-05T23:12:28.244Z,239.87
2018-12-05T23:14:57.230Z,249.60
2018-12-05T23:17:26.944Z,253.40
2018-12-05T23:19:55.742Z,254.97
2018-12-05T23:22:24.484Z,270.83
2018-12-05T23:24:53.181Z,277.20
2018-12-05T23:27:21.975Z,287.97
2018-12-05T23:29:54.283Z,276.73
2018-12-05T23:32:23.090Z,270.60
2018-12-05T23:34:51.794Z,269.33
2018-12-05T23:37:20.424Z,265.00
2018-12-05T23:39:49.560Z,265.50
2018-12-05T23:42:18.318Z,277.40
2018-12-05T23:44:46.993Z,260.20
2018-12-05T23:47:15.601Z,270.70
2018-12-05T23:49:44.284Z,292.57
2018-12-05T23:52:13.223Z,270.77
2018-12-05T23:54:42.201Z,269.67
2018-12-05T23:57:11.056Z,257.17
2018-12-05T23:59:39.854Z,228.87
